createdAt,value
2019-02-06T00:05:18.109Z,82.97
2019-02-06T00:11:21.902Z,83.13
2019-02-06T00:23:21.738Z,83.55
2019-02-06T00:28:33.377Z,84.04
2019-02-06T00:33:44.575Z,83.99
2019-02-06T00:38:55.124Z,84.50
2019-02-06T00:50:56.445Z,85.28
2019-02-06T00:56:39.330Z,85.77
2019-02-06T01:08:49.565Z,85.74
2019-02-06T01:14:48.431Z,86.09
2019-02-06T01:33:28.932Z,87.01
2019-02-06T01:45:38.122Z,87.08
2019-02-06T01:57:16.719Z,87.30
2019-02-06T02:03:08.537Z,87.84
2019-02-06T02:08:21.451Z,87.86
2019-02-06T02:19:50.934Z,88.28
2019-02-06T02:31:08.584Z,87.93
2019-02-06T02:42:43.857Z,87.97
2019-02-06T02:48:08.968Z,88.50
2019-02-06T02:54:00.116Z,88.75
2019-02-06T03:00:00.939Z,88.47
2019-02-06T03:05:59.443Z,88.71
2019-02-06T03:11:58.768Z,88.42
2019-02-06T03:17:28.997Z,88.33
2019-02-06T03:23:35.948Z,88.78
2019-02-06T03:31:19.639Z,88.23
2019-02-06T03:50:08.418Z,88.76
2019-02-06T03:54:15.623Z,88.84
2019-02-06T03:59:44.592Z,88.60
2019-02-06T04:05:16.106Z,89.47
2019-02-06T04:10:54.153Z,89.63
2019-02-06T04:16:46.810Z,88.93
2019-02-06T04:22:44.029Z,89.37
2019-02-06T04:41:25.835Z,89.40
2019-02-06T04:52:32.373Z,89.48
2019-02-06T05:15:40.686Z,89.41
2019-02-06T05:21:49.037Z,88.89
2019-02-06T05:26:51.474Z,89.19
2019-02-06T05:31:53.745Z,89.84
2019-02-06T05:36:55.881Z,89.44
2019-02-06T05:41:57.953Z,88.89
2019-02-06T05:47:02.923Z,88.79
2019-02-06T05:52:10.915Z,88.78
2019-02-06T05:57:19.658Z,88.70
2019-02-06T06:02:23.230Z,88.39
2019-02-06T06:07:44.137Z,88.15
2019-02-06T06:12:44.890Z,88.70
2019-02-06T06:17:49.968Z,88.25
2019-02-06T06:22:58.243Z,87.99
2019-02-06T06:28:05.617Z,88.42
2019-02-06T06:33:20.534Z,88.23
2019-02-06T06:38:28.587Z,88.31
2019-02-06T06:43:36.930Z,88.37
2019-02-06T06:48:45.192Z,88.46
2019-02-06T06:53:50.355Z,87.83
2019-02-06T06:58:58.434Z,88.06
2019-02-06T07:04:04.613Z,87.90
2019-02-06T07:09:13.171Z,87.96
2019-02-06T07:14:19.207Z,87.59
2019-02-06T07:19:24.311Z,87.73
2019-02-06T07:24:33.912Z,87.87
2019-02-06T07:29:41.910Z,87.78
2019-02-06T07:34:47.223Z,87.34
2019-02-06T07:39:54.028Z,87.18
2019-02-06T07:44:58.208Z,87.17
2019-02-06T07:50:03.300Z,86.60
2019-02-06T07:55:07.362Z,86.48
2019-02-06T08:00:13.972Z,86.01
2019-02-06T08:05:18.321Z,85.35
2019-02-06T08:10:25.663Z,85.03
2019-02-06T08:15:35.416Z,84.90
2019-02-06T08:20:45.507Z,84.56
2019-02-06T08:25:52.469Z,83.95
2019-02-06T08:30:54.956Z,82.72
2019-02-06T08:35:57.254Z,83.17
2019-02-06T08:40:59.555Z,82.79
2019-02-06T08:46:06.807Z,82.58
2019-02-06T08:51:10.849Z,82.03
2019-02-06T08:56:16.182Z,81.87
2019-02-06T09:01:21.423Z,82.08
2019-02-06T09:06:24.090Z,81.00
2019-02-06T09:11:28.733Z,81.23
2019-02-06T09:16:31.478Z,81.93
2019-02-06T09:21:35.995Z,81.32
2019-02-06T09:26:42.600Z,80.12
2019-02-06T09:31:47.015Z,80.78
2019-02-06T09:36:53.381Z,80.91
2019-02-06T09:41:57.206Z,79.97
2019-02-06T09:46:59.405Z,80.14
2019-02-06T09:52:05.004Z,80.35
2019-02-06T09:57:11.294Z,80.14
2019-02-06T10:02:20.640Z,79.53
2019-02-06T10:07:24.499Z,79.23
2019-02-06T10:12:27.290Z,78.73
2019-02-06T10:17:29.508Z,78.50
2019-02-06T10:22:34.102Z,77.74
2019-02-06T10:27:41.680Z,76.92
2019-02-06T10:32:49.776Z,76.97
2019-02-06T10:37:54.306Z,76.76
2019-02-06T10:42:59.960Z,75.98
2019-02-06T10:48:05.686Z,75.61
2019-02-06T10:53:15.694Z,75.10
2019-02-06T10:58:21.566Z,74.48
2019-02-06T11:03:26.709Z,73.48
2019-02-06T11:08:32.852Z,72.86
2019-02-06T11:13:37.757Z,72.54
2019-02-06T11:18:44.525Z,72.60
2019-02-06T11:23:49.028Z,71.46
2019-02-06T11:28:58.243Z,70.23
2019-02-06T11:34:02.938Z,69.47
2019-02-06T11:39:11.950Z,69.11
2019-02-06T11:44:22.629Z,68.76
2019-02-06T11:49:34.412Z,68.11
2019-02-06T11:54:36.752Z,68.55
2019-02-06T11:59:40.275Z,67.99
2019-02-06T12:04:46.549Z,67.98
2019-02-06T12:09:48.741Z,67.24
2019-02-06T12:14:57.156Z,67.03
2019-02-06T12:20:01.479Z,66.17
2019-02-06T12:25:06.348Z,65.21
2019-02-06T12:30:14.071Z,64.60
2019-02-06T12:35:19.934Z,64.76
2019-02-06T12:40:27.217Z,62.71
2019-02-06T12:45:32.138Z,62.58
2019-02-06T12:50:36.446Z,62.84
2019-02-06T12:55:42.952Z,62.34
2019-02-06T13:00:45.282Z,61.88
2019-02-06T13:05:47.449Z,60.76
2019-02-06T13:10:49.576Z,61.06
2019-02-06T13:15:52.007Z,61.61
2019-02-06T13:20:54.115Z,62.11
2019-02-06T13:25:56.237Z,62.38
2019-02-06T13:30:58.488Z,61.82
2019-02-06T13:36:00.640Z,61.91
2019-02-06T13:41:02.879Z,62.57
2019-02-06T13:46:05.054Z,60.48
2019-02-06T13:51:17.589Z,59.95
2019-02-06T13:56:16.613Z,60.82
2019-02-06T14:01:26.207Z,61.14
2019-02-06T14:06:23.083Z,61.43
2019-02-06T14:11:29.185Z,60.67
2019-02-06T14:16:31.564Z,60.74
2019-02-06T14:21:33.812Z,58.82
2019-02-06T14:26:48.724Z,60.29
2019-02-06T14:32:37.213Z,58.89
2019-02-06T14:38:24.380Z,58.27
2019-02-06T14:43:43.378Z,58.44
2019-02-06T14:49:09.962Z,58.12
2019-02-06T14:54:50.994Z,55.94
2019-02-06T15:00:20.999Z,54.89
2019-02-06T15:05:37.126Z,57.21
2019-02-06T15:11:01.760Z,57.82
2019-02-06T15:16:29.936Z,58.79
2019-02-06T15:22:12.446Z,58.05
2019-02-06T15:28:02.588Z,58.14
2019-02-06T15:33:33.335Z,57.82
2019-02-06T15:38:58.334Z,58.22
2019-02-06T15:44:28.702Z,58.07
2019-02-06T15:49:59.523Z,58.41
2019-02-06T15:55:37.968Z,59.63
2019-02-06T16:01:20.655Z,59.83
2019-02-06T16:06:52.842Z,59.88
2019-02-06T16:12:39.874Z,60.32
2019-02-06T16:18:16.703Z,60.36
2019-02-06T16:24:05.481Z,61.64
2019-02-06T16:29:30.580Z,62.92
2019-02-06T16:35:19.913Z,63.91
2019-02-06T16:40:51.804Z,64.84
2019-02-06T16:46:35.754Z,65.58
2019-02-06T16:52:01.872Z,65.86
2019-02-06T16:57:39.569Z,65.08
2019-02-06T17:03:21.746Z,65.75
2019-02-06T17:09:01.818Z,67.17
2019-02-06T17:15:15.913Z,67.59
2019-02-06T17:20:58.543Z,68.51
2019-02-06T17:26:36.753Z,68.91
2019-02-06T17:32:10.793Z,69.25
2019-02-06T17:37:41.993Z,69.84
2019-02-06T17:43:23.354Z,69.02
2019-02-06T17:48:41.746Z,70.75
2019-02-06T17:54:05.820Z,71.42
2019-02-06T17:59:08.414Z,70.17
2019-02-06T18:04:23.229Z,69.32
2019-02-06T18:09:25.384Z,70.00
2019-02-06T18:14:27.882Z,69.29
2019-02-06T18:19:35.777Z,68.46
2019-02-06T18:24:37.800Z,68.29
2019-02-06T18:29:39.935Z,68.51
2019-02-06T18:34:46.386Z,67.28
2019-02-06T18:39:48.558Z,67.98
2019-02-06T18:44:50.767Z,67.90
2019-02-06T18:49:53.712Z,67.73
2019-02-06T18:54:57.577Z,68.18
2019-02-06T18:59:59.769Z,68.53
2019-02-06T19:05:04.056Z,68.76
2019-02-06T19:10:07.689Z,70.19
2019-02-06T19:15:10.516Z,70.12
2019-02-06T19:20:13.268Z,70.39
2019-02-06T19:25:15.358Z,71.03
2019-02-06T19:30:22.961Z,71.50
2019-02-06T19:35:27.207Z,71.85
2019-02-06T19:40:29.245Z,71.79
2019-02-06T19:45:38.026Z,71.88
2019-02-06T19:50:40.575Z,72.15
2019-02-06T19:55:42.762Z,72.16
2019-02-06T20:00:45.059Z,72.04
2019-02-06T20:05:49.372Z,72.35
2019-02-06T20:10:51.643Z,72.45
2019-02-06T20:16:19.799Z,72.37
2019-02-06T20:21:25.104Z,72.61
2019-02-06T20:26:41.181Z,73.28
2019-02-06T20:32:26.604Z,74.49
2019-02-06T20:49:54.460Z,74.28
2019-02-06T20:56:01.188Z,74.24
2019-02-06T21:01:16.688Z,75.04
2019-02-06T21:06:28.486Z,75.31
2019-02-06T21:22:48.947Z,75.25
2019-02-06T21:27:52.202Z,75.52
2019-02-06T21:32:54.688Z,75.60
2019-02-06T21:37:57.312Z,76.11
2019-02-06T21:42:59.622Z,76.34
2019-02-06T21:48:01.720Z,76.66
2019-02-06T21:53:04.049Z,76.46
2019-02-06T21:58:06.016Z,77.08
2019-02-06T22:03:10.771Z,77.71
2019-02-06T22:08:13.211Z,77.39
2019-02-06T22:13:15.315Z,77.66
2019-02-06T22:18:17.471Z,77.88
2019-02-06T22:23:19.483Z,77.79
2019-02-06T22:28:21.692Z,77.99
2019-02-06T22:33:23.997Z,77.83
2019-02-06T22:38:26.054Z,78.41
2019-02-06T22:43:28.104Z,78.62
2019-02-06T22:48:30.129Z,78.36
2019-02-06T22:53:32.202Z,78.21
2019-02-06T22:58:34.548Z,78.29
2019-02-06T23:03:41.778Z,78.72
2019-02-06T23:08:43.872Z,78.44
2019-02-06T23:13:45.982Z,78.75
2019-02-06T23:18:48.216Z,79.47
2019-02-06T23:23:50.565Z,79.25
2019-02-06T23:28:52.711Z,79.22
2019-02-06T23:33:54.797Z,78.79
2019-02-06T23:38:56.891Z,79.16
2019-02-06T23:43:59.261Z,79.71
2019-02-06T23:49:01.561Z,79.75
2019-02-06T23:54:04.080Z,79.55
2019-02-06T23:59:06.161Z,79.32
